Main page
METAR-TAF:

METAR-TAF

Airports :

Verona Villafranca Airport

Verona, Italy

latitude: 45-23N, longitude: 010-52E, elevation: 67 m

Current weather observation

The report was made 39 minutes ago, at 01:20 UTC
Wind 3 kt from the North
Temperature 3°C
Humidity 87%
Pressure 1013 hPa
Visibility 10 km or more
Broken clouds at a height of 7000 ft

METAR: LIPX 190120Z 36003KT 9999 BKN070 03/01 Q1013

Time: 02:59 (01:59 UTC)

Forecast

The report was made 2 hours and 59 minutes ago, at 23:00 UTC
Forecast valid from 19 at 00 UTC to 19 at 09 UTC
Wind 5 kt from the North
Visibility 10 km or more
Scattered clouds at a height of 6000 ft

TAF: LIPX 182300Z 1900/1909 01005KT 9999 SCT060

Weather observations and forecasts of more than 4000 airports (METAR and TAF reports).

The available stations are represented by yellow and red dots on the map.

Hover mouse over dot to see the name of the station.

Then click to see weather observations and forecasts.

To change the map : click on the green buttons with a black cross to zoom in, on the green button with a dash to zoom out, or on the green arrows for adjacent maps.


METAR-TAF: